createdAt,value
2022-09-23T18:09:12.734Z,70.71
2022-09-23T18:12:16.955Z,69.59
2022-09-23T18:15:21.039Z,69.25
2022-09-23T18:18:24.605Z,69.00
2022-09-23T18:21:30.868Z,68.88
2022-09-23T18:24:39.737Z,68.44
2022-09-23T18:27:43.274Z,69.21
2022-09-23T18:30:53.821Z,68.87
2022-09-23T18:33:58.165Z,68.59
2022-09-23T18:37:01.730Z,69.02
2022-09-23T18:40:11.340Z,68.78
2022-09-23T18:43:19.896Z,68.64
2022-09-23T18:46:25.573Z,68.99
2022-09-23T18:49:46.802Z,69.20
2022-09-23T18:52:50.377Z,69.73
2022-09-23T18:55:55.345Z,69.55
2022-09-23T18:58:59.128Z,69.22
2022-09-23T19:02:02.920Z,69.36
2022-09-23T19:05:07.506Z,69.32
2022-09-23T19:08:11.074Z,69.07
2022-09-23T19:11:15.974Z,69.28
2022-09-23T19:14:19.534Z,69.11
2022-09-23T19:17:23.093Z,69.03
2022-09-23T19:20:26.682Z,69.00
2022-09-23T19:23:32.095Z,69.56
2022-09-23T19:26:39.266Z,70.00
2022-09-23T19:29:42.878Z,69.79
2022-09-23T19:32:46.854Z,70.16
2022-09-23T19:35:53.117Z,70.80
2022-09-23T19:38:58.369Z,71.85
2022-09-23T19:42:03.758Z,72.05
2022-09-23T19:45:08.074Z,72.57
2022-09-23T19:48:11.949Z,72.30
2022-09-23T19:51:16.543Z,72.76
2022-09-23T19:54:20.677Z,72.26
2022-09-23T19:57:29.717Z,72.69
2022-09-23T20:00:34.376Z,73.27
2022-09-23T20:03:38.825Z,72.91
2022-09-23T20:06:42.504Z,73.25
2022-09-23T20:09:46.198Z,73.57
2022-09-23T20:12:51.166Z,74.06
2022-09-23T20:15:54.742Z,74.14
2022-09-23T20:18:59.749Z,74.16
2022-09-23T20:22:20.923Z,73.79
2022-09-23T20:25:24.494Z,75.00
2022-09-23T20:28:28.443Z,75.62
2022-09-23T20:31:32.226Z,76.79
2022-09-23T20:34:35.871Z,75.95
2022-09-23T20:37:39.413Z,75.83
2022-09-23T20:40:42.990Z,75.74
2022-09-23T20:43:48.247Z,76.07
2022-09-23T20:46:51.879Z,75.54
2022-09-23T20:49:55.502Z,75.51
2022-09-23T20:52:59.059Z,74.88
2022-09-23T20:56:05.915Z,74.55
2022-09-23T20:59:14.924Z,74.71
2022-09-23T21:02:19.055Z,74.17
2022-09-23T21:05:23.273Z,74.81
2022-09-23T21:08:26.898Z,75.01
2022-09-23T21:11:32.019Z,74.53
2022-09-23T21:14:36.922Z,73.69
2022-09-23T21:17:40.545Z,73.07
2022-09-23T21:20:44.089Z,73.00
2022-09-23T21:23:48.615Z,73.18
2022-09-23T21:26:52.221Z,73.06
2022-09-23T21:29:57.386Z,73.14
2022-09-23T21:33:02.051Z,72.89
2022-09-23T21:36:07.885Z,72.71
2022-09-23T21:39:13.449Z,72.68
2022-09-23T21:42:17.019Z,72.69
2022-09-23T21:45:21.938Z,72.81
2022-09-23T21:48:25.706Z,73.34
2022-09-23T21:51:30.899Z,73.36
2022-09-23T21:54:34.496Z,73.29
2022-09-23T21:57:38.365Z,73.58
2022-09-23T22:00:44.020Z,72.70
2022-09-23T22:03:52.329Z,73.17
2022-09-23T22:06:55.898Z,73.92
